Time;durP1;ratioP1;P1;durP2;ratioP2;P2;SDS_P1;SDS_P2;PMS_P1;PMS_P2;Temp;Humidity;BMP_temperature;BMP_pressure;BME280_temperature;BME280_humidity;BME280_pressure;Samples;Min_cycle;Max_cycle;Signal;HPM_P1;HPM_P2
2023/07/02 00:02:00;;;;;;;6.60;4.13;;;;;;;19.98;nan;-15949.88;5033876;28;20234;-58
2023/07/02 00:04:25;;;;;;;6.90;4.35;;;;;;;20.06;nan;-16923.84;5034282;28;20260;-58
2023/07/02 00:06:51;;;;;;;8.50;4.78;;;;;;;20.10;nan;-17573.03;5034295;28;20179;-58
2023/07/02 00:09:16;;;;;;;6.78;4.30;;;;;;;20.12;nan;-17897.56;5033797;28;20649;-58
2023/07/02 00:11:45;;;;;;;6.78;4.07;;;;;;;19.94;nan;-17570.34;5033879;28;20183;-58
2023/07/02 00:14:11;;;;;;;6.63;4.57;;;;;;;19.85;nan;-17892.91;5033615;28;20258;-58
2023/07/02 00:16:45;;;;;;;7.70;5.05;;;;;;;20.12;nan;-18545.88;5034038;28;20655;-58
2023/07/02 00:19:13;;;;;;;9.45;5.32;;;;;;;19.76;nan;-18215.41;5034034;28;20168;-57
2023/07/02 00:21:40;;;;;;;11.70;6.68;;;;;;;19.96;nan;-17246.53;5033571;28;20664;-57
2023/07/02 00:24:05;;;;;;;17.77;8.80;;;;;;;19.91;nan;-17893.94;5032391;28;20656;-57
2023/07/02 00:26:31;;;;;;;17.30;8.98;;;;;;;19.91;nan;-18218.00;5033417;28;20167;-58
2023/07/02 00:28:56;;;;;;;18.40;8.32;;;;;;;19.58;nan;-18859.81;5033574;28;20171;-59
2023/07/02 00:31:23;;;;;;;15.20;6.70;;;;;;;19.35;nan;-18531.94;5033669;28;20529;-58
2023/07/02 00:33:49;;;;;;;10.10;6.13;;;;;;;19.57;nan;-18859.63;5033200;28;20579;-58
2023/07/02 00:36:15;;;;;;;12.25;6.70;;;;;;;19.87;nan;-18541.31;5032027;28;20646;-58
2023/07/02 00:38:47;;;;;;;13.32;6.28;;;;;;;19.90;nan;-18541.84;5032867;28;20191;-58
2023/07/02 00:41:13;;;;;;;10.85;6.03;;;;;;;19.64;nan;-18213.19;5032858;28;20638;-58
2023/07/02 00:43:43;;;;;;;11.20;6.22;;;;;;;19.93;nan;-18542.41;5032525;28;20199;-58
2023/07/02 00:46:11;;;;;;;12.02;6.40;;;;;;;19.98;nan;-18219.16;5032692;28;20172;-58
2023/07/02 00:48:39;;;;;;;11.10;6.28;;;;;;;19.82;nan;-17892.47;5031495;28;20567;-57
2023/07/02 00:51:04;;;;;;;11.70;6.13;;;;;;;20.04;nan;-17572.03;5032211;28;20230;-57
2023/07/02 00:53:32;;;;;;;12.07;6.43;;;;;;;20.01;nan;-17571.53;5032695;28;20183;-58
2023/07/02 00:55:57;;;;;;;10.60;6.07;;;;;;;19.79;nan;-17243.78;5032601;28;20294;-58
2023/07/02 00:58:23;;;;;;;11.57;6.57;;;;;;;20.01;nan;-17247.34;5032698;28;20725;-57
2023/07/02 01:00:49;;;;;;;13.10;6.63;;;;;;;19.81;nan;-16271.75;5032930;28;20256;-57
2023/07/02 01:03:14;;;;;;;13.88;6.97;;;;;;;20.05;nan;-15950.78;5032416;28;20227;-58
2023/07/02 01:05:41;;;;;;;11.93;7.15;;;;;;;19.83;nan;-14974.97;5031980;28;20194;-57
2023/07/02 01:08:07;;;;;;;12.85;6.80;;;;;;;19.84;nan;-14975.09;5032126;28;20179;-57
2023/07/02 01:10:35;;;;;;;13.05;7.50;;;;;;;19.82;nan;-15299.16;5032633;28;20176;-58
2023/07/02 01:13:04;;;;;;;17.75;8.93;;;;;;;19.71;nan;-14973.41;5032168;28;20194;-58
2023/07/02 01:15:29;;;;;;;14.70;8.02;;;;;;;20.08;nan;-15302.41;5031883;28;20658;-61
2023/07/02 01:17:56;;;;;;;18.40;8.50;;;;;;;20.07;nan;-13679.78;5031822;28;20178;-58
2023/07/02 01:20:22;;;;;;;15.27;8.77;;;;;;;19.74;nan;-14325.22;5031937;28;20183;-59
2023/07/02 01:22:51;;;;;;;16.75;8.52;;;;;;;20.01;nan;-14652.66;5032078;28;20203;-59
2023/07/02 01:25:18;;;;;;;19.02;9.68;;;;;;;19.97;nan;-14652.25;5031861;28;20175;-56
2023/07/02 01:27:44;;;;;;;20.55;9.40;;;;;;;19.93;nan;-14651.75;5032961;28;20263;-57
2023/07/02 01:30:10;;;;;;;15.15;8.63;;;;;;;19.87;nan;-12704.16;5032419;28;20288;-58
2023/07/02 01:32:37;;;;;;;16.98;8.48;;;;;;;19.70;nan;-13027.19;5032395;28;20656;-57
2023/07/02 01:35:03;;;;;;;15.40;8.00;;;;;;;19.93;nan;-12704.69;5032129;28;20198;-59
2023/07/02 01:37:28;;;;;;;20.38;9.38;;;;;;;19.93;nan;-13678.38;5032124;28;20646;-59
2023/07/02 01:39:54;;;;;;;17.65;8.75;;;;;;;19.58;nan;-13999.03;5032390;28;20194;-58
2023/07/02 01:42:20;;;;;;;15.57;8.63;;;;;;;19.56;nan;-14323.06;5032594;28;20540;-63
2023/07/02 01:44:48;;;;;;;15.05;7.50;;;;;;;19.71;nan;-14649.19;5032324;28;20198;-59
2023/07/02 01:47:14;;;;;;;16.35;7.78;;;;;;;19.44;nan;-15294.19;5031944;28;20658;-58
2023/07/02 01:49:39;;;;;;;14.52;7.32;;;;;;;19.42;nan;-15618.06;5032179;28;20179;-58
2023/07/02 01:52:06;;;;;;;10.15;5.70;;;;;;;18.72;nan;-14313.50;5032009;28;20742;-57
2023/07/02 01:54:32;;;;;;;12.63;5.97;;;;;;;19.69;nan;-11404.41;5032474;28;20555;-58
2023/07/02 01:56:58;;;;;;;9.80;5.93;;;;;;;19.60;nan;-13350.56;5031892;28;20174;-57
2023/07/02 01:59:24;;;;;;;10.20;5.10;;;;;;;19.50;nan;-13673.94;5032403;28;20176;-58
2023/07/02 02:01:50;;;;;;;8.98;5.00;;;;;;;19.50;nan;-13673.94;5031427;28;20179;-60
2023/07/02 02:04:15;;;;;;;10.80;5.53;;;;;;;19.54;nan;-13349.97;5032153;28;20199;-57
2023/07/02 02:06:41;;;;;;;7.75;4.60;;;;;;;19.36;nan;-12051.03;5031599;28;20612;-59
2023/07/02 02:09:09;;;;;;;7.65;4.78;;;;;;;19.46;nan;-11078.34;5031905;28;20258;-57
2023/07/02 02:11:37;;;;;;;8.27;5.10;;;;;;;19.45;nan;-11402.75;5031828;28;20556;-61
2023/07/02 02:14:02;;;;;;;8.80;5.10;;;;;;;19.72;nan;-11404.63;5031843;28;20168;-57
2023/07/02 02:16:28;;;;;;;7.90;4.53;;;;;;;19.46;nan;-11402.81;5031604;28;20564;-58
2023/07/02 02:18:53;;;;;;;8.80;5.20;;;;;;;;;;5031509;28;20163;-57
2023/07/02 02:21:20;;;;;;;9.35;4.68;;;;;;;19.45;nan;-11078.25;5031923;28;20654;-58
2023/07/02 02:23:45;;;;;;;9.10;5.20;;;;;;;19.41;nan;-11402.56;5032083;28;20203;-58
2023/07/02 02:26:11;;;;;;;8.68;5.05;;;;;;;19.48;nan;-11403.00;5031715;28;20182;-57
2023/07/02 02:28:36;;;;;;;10.07;5.35;;;;;;;19.72;nan;-11404.63;5031567;28;20194;-58
2023/07/02 02:31:02;;;;;;;9.48;4.78;;;;;;;19.53;nan;-11078.75;5032078;28;20627;-57
2023/07/02 02:33:28;;;;;;;7.00;4.18;;;;;;;19.58;nan;-7181.72;5031384;28;20671;-58
2023/07/02 02:35:53;;;;;;;7.15;4.22;;;;;;;19.98;nan;-3602.66;5031597;28;20326;-56
2023/07/02 02:38:19;;;;;;;8.98;4.57;;;;;;;19.82;nan;-4905.16;5031975;28;20164;-58
2023/07/02 02:40:44;;;;;;;13.52;4.53;;;;;;;19.96;nan;-7181.66;5031570;28;20604;-58
2023/07/02 02:43:09;;;;;;;7.28;4.50;;;;;;;20.06;nan;-6531.13;5030483;28;20203;-58
2023/07/02 02:45:35;;;;;;;6.10;3.85;;;;;;;20.09;nan;-3602.03;5031834;28;20218;-58
2023/07/02 02:48:00;;;;;;;7.07;3.85;;;;;;;20.13;nan;-995.81;5031680;28;20172;-57
2023/07/02 02:50:26;;;;;;;7.93;4.30;;;;;;;20.04;nan;-1322.53;5031693;28;20183;-57
2023/07/02 02:52:52;;;;;;;8.80;4.40;;;;;;;19.96;nan;-2951.66;5031792;28;20547;-59
2023/07/02 02:55:18;;;;;;;8.32;4.82;;;;;;;19.92;nan;-4579.44;5031913;28;20159;-62
2023/07/02 02:57:43;;;;;;;11.50;5.47;;;;;;;20.04;nan;-7506.84;5031480;28;20241;-58
2023/07/02 03:00:09;;;;;;;11.88;6.28;;;;;;;20.11;nan;-8157.25;5031428;28;20206;-64
2023/07/02 03:02:35;;;;;;;12.75;6.22;;;;;;;19.89;nan;-7506.78;5031153;28;20277;-58
2023/07/02 03:05:02;;;;;;;9.88;5.88;;;;;;;20.03;nan;-6856.44;5031420;28;20253;-57
2023/07/02 03:07:28;;;;;;;11.80;5.78;;;;;;;20.46;nan;-4902.75;5031655;28;20254;-57
2023/07/02 03:09:54;;;;;;;16.25;7.93;;;;;;;20.28;nan;-3926.56;5031558;28;20634;-57
2023/07/02 03:12:19;;;;;;;14.48;7.90;;;;;;;20.27;nan;-5229.03;5031597;28;20230;-58
2023/07/02 03:14:44;;;;;;;13.88;7.13;;;;;;;20.31;nan;-5228.88;5034804;28;20174;-57
2023/07/02 03:17:10;;;;;;;15.35;7.70;;;;;;;20.09;nan;-4578.66;5035031;28;20684;-58
2023/07/02 03:19:35;;;;;;;14.63;6.65;;;;;;;20.32;nan;-6205.38;5034929;28;20229;-58
2023/07/02 03:22:01;;;;;;;14.75;7.13;;;;;;;20.35;nan;-5554.31;5034581;28;20176;-57
2023/07/02 03:24:26;;;;;;;14.50;6.35;;;;;;;20.37;nan;-1971.22;5034730;28;20210;-58
2023/07/02 03:26:51;;;;;;;13.35;6.43;;;;;;;20.03;nan;-2299.88;5034723;28;20172;-57
2023/07/02 03:29:19;;;;;;;14.73;6.43;;;;;;;19.96;nan;-3277.22;5035104;28;20259;-57
2023/07/02 03:31:45;;;;;;;13.60;6.20;;;;;;;20.37;nan;-993.41;5034666;28;20545;-58
2023/07/02 03:34:10;;;;;;;11.95;5.88;;;;;;;18.86;nan;-32.75;5034770;28;20179;-58
2023/07/02 03:36:36;;;;;;;13.98;6.30;;;;;;;20.28;nan;-2949.44;5034944;28;20232;-58
2023/07/02 03:39:03;;;;;;;10.40;5.85;;;;;;;20.23;nan;-2949.75;5034679;28;20188;-57
2023/07/02 03:41:28;;;;;;;12.60;5.72;;;;;;;20.27;nan;-3600.94;5034342;28;20175;-58
2023/07/02 03:43:54;;;;;;;9.07;5.78;;;;;;;20.13;nan;-3927.38;5034355;28;20313;-58
2023/07/02 03:46:19;;;;;;;14.00;5.60;;;;;;;20.36;nan;-2297.25;5034157;28;20266;-58
2023/07/02 03:48:45;;;;;;;9.27;5.22;;;;;;;20.52;nan;-1643.97;5033856;28;20638;-58
2023/07/02 03:51:14;;;;;;;11.48;5.63;;;;;;;20.51;nan;2270.50;5034176;28;20544;-57
2023/07/02 03:53:39;;;;;;;7.72;4.72;;;;;;;20.13;nan;-1321.63;5034434;28;20237;-59
2023/07/02 03:56:05;;;;;;;8.27;4.63;;;;;;;20.36;nan;4553.25;5034814;28;20175;-57
2023/07/02 03:58:30;;;;;;;11.93;4.78;;;;;;;20.44;nan;6841.75;5034372;28;20175;-56
2023/07/02 04:00:55;;;;;;;6.18;3.95;;;;;;;20.33;nan;4879.13;5034000;28;20251;-57
2023/07/02 04:03:21;;;;;;;7.85;4.28;;;;;;;20.41;nan;2268.88;5033403;28;20293;-57
2023/07/02 04:05:46;;;;;;;6.50;4.15;;;;;;;20.13;nan;2917.16;5034276;28;20168;-60
2023/07/02 04:08:12;;;;;;;6.88;4.10;;;;;;;20.48;nan;5208.84;5032762;28;20654;-57
2023/07/02 04:10:37;;;;;;;12.85;4.63;;;;;;;20.15;nan;3570.09;5033403;28;20555;-57
2023/07/02 04:13:03;;;;;;;7.93;4.18;;;;;;;20.55;nan;4230.28;5033487;28;20183;-59
2023/07/02 04:15:28;;;;;;;7.28;4.38;;;;;;;20.29;nan;2267.09;5033495;28;20172;-58
2023/07/02 04:17:53;;;;;;;6.70;4.10;;;;;;;20.46;nan;-666.38;5033269;28;20703;-57
2023/07/02 04:20:20;;;;;;;7.55;4.68;;;;;;;20.32;nan;310.31;5033515;28;20643;-58
2023/07/02 04:22:46;;;;;;;6.55;4.35;;;;;;;20.32;nan;5858.84;5033310;28;20233;-58
2023/07/02 04:25:14;;;;;;;7.50;4.15;;;;;;;20.79;nan;4234.69;5033169;28;20176;-60
2023/07/02 04:27:41;;;;;;;7.22;4.38;;;;;;;20.93;nan;5544.84;5033419;28;20179;-58
2023/07/02 04:30:08;;;;;;;8.75;5.00;;;;;;;21.06;nan;3585.94;5032833;28;20571;-58
2023/07/02 04:32:33;;;;;;;6.95;4.72;;;;;;;21.21;nan;3915.53;5032834;28;20190;-57
2023/07/02 04:34:59;;;;;;;8.75;4.88;;;;;;;21.07;nan;3259.31;5033357;28;20555;-59
2023/07/02 04:37:24;;;;;;;7.45;4.50;;;;;;;21.38;nan;11448.84;5033223;28;20168;-57
2023/07/02 04:39:49;;;;;;;7.65;4.32;;;;;;;21.45;nan;12762.50;5033200;28;20172;-58
2023/07/02 04:42:15;;;;;;;7.70;4.65;;;;;;;21.31;nan;14069.63;5033715;28;20175;-58
2023/07/02 04:44:43;;;;;;;8.55;4.65;;;;;;;21.09;nan;12095.44;5033132;28;20203;-58
2023/07/02 04:47:08;;;;;;;9.07;4.82;;;;;;;21.33;nan;10791.88;5033586;28;20186;-58
2023/07/02 04:49:34;;;;;;;6.72;4.45;;;;;;;21.37;nan;9154.81;5033205;28;20172;-59
2023/07/02 04:51:59;;;;;;;11.43;4.95;;;;;;;21.50;nan;9813.59;5032814;28;20571;-57
2023/07/02 04:54:24;;;;;;;7.18;4.35;;;;;;;21.72;nan;10803.25;5033021;28;20627;-58
2023/07/02 04:56:50;;;;;;;9.35;4.82;;;;;;;21.73;nan;11459.41;5033039;28;20631;-56
2023/07/02 04:59:16;;;;;;;11.10;4.82;;;;;;;22.13;nan;13769.34;5031525;28;20183;-58
2023/07/02 05:01:41;;;;;;;9.43;4.18;;;;;;;22.92;nan;19061.44;5032167;28;20172;-58
2023/07/02 05:04:13;;;;;;;8.98;4.47;;;;;;;23.88;nan;42801.69;5031355;28;20203;-60
2023/07/02 05:06:39;;;;;;;8.80;4.90;;;;;;;24.08;nan;49650.31;5032533;28;20645;-59
2023/07/02 05:09:05;;;;;;;8.43;5.10;;;;;;;23.28;nan;44265.66;5032646;28;20221;-57
2023/07/02 05:11:30;;;;;;;9.52;4.82;;;;;;;22.08;nan;18039.16;5032498;28;20186;-59
2023/07/02 05:13:55;;;;;;;10.23;5.65;;;;;;;21.85;nan;4909.03;5032154;28;20689;-58
2023/07/02 05:16:21;;;;;;;10.70;5.00;;;;;;;21.29;nan;1628.94;5032897;28;20207;-57
2023/07/02 05:18:46;;;;;;;9.15;5.13;;;;;;;20.92;nan;-3923.13;5032256;28;20176;-57
2023/07/02 05:21:12;;;;;;;10.85;5.25;;;;;;;20.87;nan;-3923.38;5032305;28;20175;-57
2023/07/02 05:23:37;;;;;;;9.88;4.93;;;;;;;20.94;nan;-4900.91;5031954;28;20686;-59
2023/07/02 05:26:03;;;;;;;10.20;5.60;;;;;;;20.94;nan;-5226.81;5032133;28;20262;-58
2023/07/02 05:28:28;;;;;;;9.88;5.13;;;;;;;21.42;nan;323.78;5032067;28;20175;-58
2023/07/02 05:30:54;;;;;;;8.73;5.05;;;;;;;21.34;nan;8499.03;5031834;28;20183;-59
2023/07/02 05:33:21;;;;;;;8.80;4.78;;;;;;;21.66;nan;10801.47;5032321;28;20226;-59
2023/07/02 05:35:47;;;;;;;10.52;4.07;;;;;;;21.83;nan;25267.72;5031247;28;20661;-58
2023/07/02 05:38:13;;;;;;;6.55;4.07;;;;;;;22.37;nan;36200.53;5031762;28;20167;-58
2023/07/02 05:40:38;;;;;;;8.55;4.38;;;;;;;22.11;nan;43538.25;5030858;28;20183;-59
2023/07/02 05:43:03;;;;;;;7.32;4.72;;;;;;;22.64;nan;47380.06;5031725;28;20210;-59
2023/07/02 05:45:29;;;;;;;8.35;4.43;;;;;;;22.51;nan;47710.25;5031449;28;20547;-57
2023/07/02 05:47:54;;;;;;;6.88;4.03;;;;;;;22.64;nan;49951.38;5031585;28;20217;-60
2023/07/02 05:50:20;;;;;;;8.18;4.20;;;;;;;22.43;nan;44274.63;5031510;28;20179;-59
2023/07/02 05:52:45;;;;;;;7.05;4.07;;;;;;;22.17;nan;39181.81;5032104;28;20171;-58
2023/07/02 05:55:11;;;;;;;8.82;4.50;;;;;;;21.39;nan;14728.38;5031840;28;20179;-57
2023/07/02 05:57:37;;;;;;;8.35;4.50;;;;;;;20.98;nan;7835.53;5031436;28;20175;-60
2023/07/02 06:00:04;;;;;;;8.48;4.30;;;;;;;20.34;nan;-1319.69;5031210;28;20203;-59
2023/07/02 06:02:31;;;;;;;7.53;4.78;;;;;;;20.15;nan;-9457.78;5031830;28;20218;-57
2023/07/02 06:04:57;;;;;;;12.00;5.18;;;;;;;20.16;nan;-10107.84;5031578;28;20654;-58
2023/07/02 06:07:22;;;;;;;9.45;5.13;;;;;;;20.03;nan;-12705.53;5031377;28;20207;-59
2023/07/02 06:09:47;;;;;;;8.38;4.75;;;;;;;19.98;nan;-14003.41;5031603;28;20168;-58
2023/07/02 06:12:13;;;;;;;10.50;5.10;;;;;;;20.01;nan;-14003.75;5031533;28;20171;-60
2023/07/02 06:14:38;;;;;;;8.95;5.15;;;;;;;19.85;nan;-10756.00;5031702;28;20207;-57
2023/07/02 06:17:06;;;;;;;8.48;4.55;;;;;;;20.21;nan;-9783.03;5031911;28;20179;-59
2023/07/02 06:19:32;;;;;;;7.65;4.82;;;;;;;20.13;nan;-9132.66;5031674;28;20171;-59
2023/07/02 06:21:57;;;;;;;8.88;4.95;;;;;;;20.15;nan;-5880.28;5031261;28;20249;-58
2023/07/02 06:24:23;;;;;;;10.38;5.35;;;;;;;20.45;nan;-6530.69;5031243;28;20287;-58
2023/07/02 06:26:48;;;;;;;10.27;5.90;;;;;;;20.93;nan;-5878.53;5031490;28;20179;-58
2023/07/02 06:29:13;;;;;;;8.25;4.80;;;;;;;21.43;nan;-2288.59;5029637;28;20171;-63
2023/07/02 06:31:39;;;;;;;9.43;5.25;;;;;;;22.05;nan;3930.66;5029567;28;20621;-62
2023/07/02 06:34:04;;;;;;;7.75;4.70;;;;;;;22.29;nan;9507.47;5028718;28;20183;-57
2023/07/02 06:36:29;;;;;;;20.35;7.72;;;;;;;22.63;nan;13786.38;5029347;28;20686;-59
2023/07/02 06:38:55;;;;;;;11.10;5.70;;;;;;;22.87;nan;14452.31;5029213;28;20605;-58
2023/07/02 06:41:20;;;;;;;15.48;5.03;;;;;;;23.20;nan;15451.28;5029231;28;20175;-58
2023/07/02 06:43:46;;;;;;;8.73;4.35;;;;;;;23.61;nan;25691.94;5030265;28;20214;-57
2023/07/02 06:46:12;;;;;;;7.40;4.47;;;;;;;23.92;nan;43872.31;5031080;28;20207;-57
2023/07/02 06:48:37;;;;;;;8.70;4.70;;;;;;;24.20;nan;41869.94;5034027;28;20236;-63
2023/07/02 06:51:03;;;;;;;12.65;5.38;;;;;;;24.38;nan;49459.72;5035752;28;20194;-59
2023/07/02 06:53:28;;;;;;;8.40;4.90;;;;;;;25.05;nan;51671.72;5035016;28;20788;-59
2023/07/02 06:55:53;;;;;;;12.07;4.60;;;;;;;24.26;nan;55138.25;5035399;28;20178;-65
2023/07/02 06:58:19;;;;;;;8.73;4.75;;;;;;;24.44;nan;56299.34;5035091;28;20510;-59
2023/07/02 07:00:45;;;;;;;9.18;4.72;;;;;;;24.83;nan;55266.56;5035500;28;20606;-58
2023/07/02 07:03:10;;;;;;;9.10;4.95;;;;;;;24.89;nan;56992.56;5034838;28;20314;-60
2023/07/02 07:05:36;;;;;;;8.18;4.50;;;;;;;25.41;nan;56077.69;5035232;28;20167;-58
2023/07/02 07:08:01;;;;;;;8.73;4.90;;;;;;;24.19;nan;58354.81;5034946;28;20270;-59
2023/07/02 07:10:27;;;;;;;7.90;4.63;;;;;;;25.38;nan;58829.06;5035107;28;20271;-59
2023/07/02 07:12:53;;;;;;;7.47;4.80;;;;;;;25.80;nan;58392.28;5034439;28;20176;-57
2023/07/02 07:15:18;;;;;;;6.60;4.45;;;;;;;25.91;nan;59419.75;5034724;28;20254;-59
2023/07/02 07:17:44;;;;;;;7.43;4.30;;;;;;;25.66;nan;59763.84;5035048;28;20266;-58
2023/07/02 07:20:10;;;;;;;7.68;4.53;;;;;;;25.42;nan;59989.03;5034949;28;20180;-57
2023/07/02 07:22:35;;;;;;;7.53;4.25;;;;;;;25.87;nan;59938.69;5035015;28;20186;-58
2023/07/02 07:25:00;;;;;;;7.68;4.60;;;;;;;25.92;nan;59176.94;5026842;28;20238;-59
2023/07/02 07:27:26;;;;;;;7.78;5.00;;;;;;;25.92;nan;59205.72;5014938;28;20172;-60
2023/07/02 07:29:51;;;;;;;7.00;4.90;;;;;;;25.95;nan;59918.16;5015032;28;20198;-60
2023/07/02 07:32:16;;;;;;;8.88;4.90;;;;;;;25.90;nan;60153.41;5015172;28;20218;-60
2023/07/02 07:34:42;;;;;;;7.20;4.30;;;;;;;25.81;nan;60214.69;5014794;28;20180;-59
2023/07/02 07:37:08;;;;;;;7.88;4.95;;;;;;;25.56;nan;59901.38;5014779;28;20577;-59
2023/07/02 07:39:33;;;;;;;8.50;4.60;;;;;;;25.67;nan;59620.50;5014593;28;20183;-59
2023/07/02 07:41:58;;;;;;;9.05;4.82;;;;;;;26.03;nan;59903.44;5014268;28;20180;-58
2023/07/02 07:44:28;;;;;;;7.90;4.88;;;;;;;26.16;nan;59922.44;5025367;28;20301;-59
2023/07/02 07:46:57;;;;;;;9.18;4.65;;;;;;;26.16;nan;59116.72;5034008;28;20627;-59
2023/07/02 07:49:22;;;;;;;6.53;4.50;;;;;;;26.13;nan;60089.28;5033892;28;20175;-59
2023/07/02 07:51:48;;;;;;;6.93;4.50;;;;;;;26.24;nan;60238.16;5033674;28;20183;-60
2023/07/02 07:54:14;;;;;;;8.35;4.60;;;;;;;25.86;nan;59280.28;5034071;28;20179;-59
2023/07/02 07:56:39;;;;;;;8.30;4.95;;;;;;;25.92;nan;60179.75;5033473;28;20658;-59
2023/07/02 07:59:05;;;;;;;7.15;4.55;;;;;;;25.81;nan;60421.41;5033385;28;20178;-59
2023/07/02 08:01:30;;;;;;;7.45;4.50;;;;;;;25.70;nan;60273.16;5033981;28;20167;-59
2023/07/02 08:03:56;;;;;;;9.45;4.25;;;;;;;25.80;nan;60493.56;5033322;28;20270;-60
2023/07/02 08:06:23;;;;;;;8.32;4.63;;;;;;;25.70;nan;60201.97;5033741;28;20494;-59
2023/07/02 08:08:48;;;;;;;7.30;4.20;;;;;;;25.56;nan;60246.66;5033910;28;20193;-60
2023/07/02 08:11:14;;;;;;;8.05;4.40;;;;;;;25.66;nan;60760.63;5033346;28;20693;-59
2023/07/02 08:13:39;;;;;;;9.23;4.43;;;;;;;25.57;nan;60828.50;5032946;28;20309;-59
2023/07/02 08:16:05;;;;;;;8.30;4.85;;;;;;;25.88;nan;60881.44;5033120;28;20241;-58
2023/07/02 08:18:30;;;;;;;7.93;4.43;;;;;;;26.35;nan;60611.81;5033475;28;20167;-59
2023/07/02 08:20:55;;;;;;;9.35;4.28;;;;;;;26.60;nan;61095.03;5032979;28;20183;-59
2023/07/02 08:23:21;;;;;;;7.75;4.30;;;;;;;26.49;nan;61161.34;5032368;28;20239;-59
2023/07/02 08:25:46;;;;;;;5.82;4.10;;;;;;;26.97;nan;61571.28;5028743;28;20202;-58
2023/07/02 08:28:12;;;;;;;6.65;4.03;;;;;;;27.15;nan;61837.66;5032813;28;20229;-59
2023/07/02 08:30:37;;;;;;;6.93;3.97;;;;;;;27.22;nan;61719.63;5033201;28;20178;-59
2023/07/02 08:33:02;;;;;;;5.90;3.67;;;;;;;27.56;nan;61804.78;5033382;28;20183;-57
2023/07/02 08:35:28;;;;;;;7.70;4.30;;;;;;;27.85;nan;62441.75;5033083;28;20623;-59
2023/07/02 08:37:53;;;;;;;6.10;4.20;;;;;;;27.70;nan;62526.50;5032931;28;20305;-58
2023/07/02 08:40:19;;;;;;;7.25;4.30;;;;;;;27.90;nan;62536.22;5031864;28;20661;-58
2023/07/02 08:42:47;;;;;;;6.22;4.07;;;;;;;27.77;nan;62463.56;5032266;28;20194;-58
2023/07/02 08:45:14;;;;;;;6.10;3.95;;;;;;;27.63;nan;62488.13;5031590;28;20244;-58
2023/07/02 08:47:40;;;;;;;7.03;3.83;;;;;;;27.54;nan;62466.78;5029526;28;20183;-59
2023/07/02 08:50:06;;;;;;;6.05;3.72;;;;;;;27.89;nan;62577.13;5032274;28;20182;-57
2023/07/02 08:52:32;;;;;;;6.55;4.40;;;;;;;27.90;nan;62662.34;5029606;28;20183;-57
2023/07/02 08:54:57;;;;;;;7.25;4.05;;;;;;;27.64;nan;62565.44;5031801;28;20179;-57
2023/07/02 08:57:22;;;;;;;6.65;3.90;;;;;;;26.96;nan;62399.03;5024028;28;20168;-57
2023/07/02 08:59:49;;;;;;;6.43;4.22;;;;;;;26.86;nan;62560.16;5031700;28;20202;-59
2023/07/02 09:02:14;;;;;;;5.97;4.10;;;;;;;27.29;nan;62453.94;5025288;28;20227;-58
2023/07/02 09:04:40;;;;;;;7.43;4.28;;;;;;;27.88;nan;62620.66;5032090;28;20198;-58
2023/07/02 09:07:10;;;;;;;6.57;4.38;;;;;;;28.31;nan;62645.66;5032504;28;20591;-59
2023/07/02 09:09:49;;;;;;;5.97;3.83;;;;;;;28.79;nan;62737.47;5031910;28;20162;-58
2023/07/02 09:12:29;;;;;;;6.03;3.80;;;;;;;28.96;nan;62741.16;5030647;28;20179;-57
2023/07/02 09:15:00;;;;;;;8.32;3.92;;;;;;;29.02;nan;62873.81;5032630;28;20182;-58
2023/07/02 09:17:32;;;;;;;5.38;3.85;;;;;;;28.63;nan;62705.97;5032327;28;20179;-57
2023/07/02 09:20:02;;;;;;;6.13;3.83;;;;;;;26.40;nan;62495.56;5031881;28;20171;-59
2023/07/02 09:22:28;;;;;;;6.25;4.07;;;;;;;28.93;nan;62713.47;5032526;28;20186;-57
2023/07/02 09:24:57;;;;;;;6.43;3.88;;;;;;;28.91;nan;62761.75;5031652;28;20249;-57
2023/07/02 09:27:36;;;;;;;8.07;4.40;;;;;;;29.45;nan;62848.88;5031998;28;20189;-58
2023/07/02 09:30:11;;;;;;;5.50;3.70;;;;;;;29.17;nan;62785.72;5032137;28;20193;-56
2023/07/02 09:32:37;;;;;;;7.47;4.32;;;;;;;29.61;nan;62875.13;5031857;28;20170;-58
2023/07/02 09:35:04;;;;;;;5.03;3.47;;;;;;;30.03;nan;62920.16;5031641;28;20606;-57
2023/07/02 09:37:30;;;;;;;5.55;3.60;;;;;;;30.20;nan;62954.91;5031649;28;20251;-58
2023/07/02 09:39:56;;;;;;;6.15;3.53;;;;;;;30.17;nan;63025.91;5031929;28;20194;-57
2023/07/02 09:42:22;;;;;;;7.78;3.97;;;;;;;30.19;nan;63032.91;5031102;28;20179;-58
2023/07/02 09:44:51;;;;;;;6.00;3.58;;;;;;;30.14;nan;62911.69;5030800;28;20289;-57
2023/07/02 09:47:18;;;;;;;6.55;3.47;;;;;;;30.63;nan;63088.22;5031695;28;20255;-56
2023/07/02 09:49:57;;;;;;;5.05;3.25;;;;;;;30.27;nan;63005.19;5031761;28;20163;-58
2023/07/02 09:52:23;;;;;;;7.15;4.00;;;;;;;30.40;nan;63136.19;5030766;28;20254;-58
2023/07/02 09:54:48;;;;;;;8.57;4.00;;;;;;;30.56;nan;63125.03;5030434;28;20734;-59
2023/07/02 09:57:14;;;;;;;5.72;3.50;;;;;;;30.58;nan;63109.44;5030636;28;20198;-59
2023/07/02 09:59:40;;;;;;;5.43;3.67;;;;;;;30.54;nan;63041.50;5030980;28;20689;-60
2023/07/02 10:02:06;;;;;;;7.40;3.83;;;;;;;30.40;nan;63326.16;5029256;28;20618;-58
2023/07/02 10:04:42;;;;;;;5.53;3.20;;;;;;;30.28;nan;63078.13;5030390;28;20256;-58
2023/07/02 10:07:08;;;;;;;6.88;3.78;;;;;;;29.91;nan;62974.94;5014299;28;20183;-58
2023/07/02 10:09:43;;;;;;;6.10;3.50;;;;;;;29.81;nan;62969.25;5029998;28;20178;-58
2023/07/02 10:12:23;;;;;;;6.10;3.50;;;;;;;29.04;nan;62788.69;5022811;28;20205;-57
2023/07/02 10:14:52;;;;;;;6.78;3.70;;;;;;;28.86;nan;62782.34;5030380;28;20174;-58
2023/07/02 10:17:32;;;;;;;6.45;3.53;;;;;;;28.69;nan;62686.53;5030602;28;20183;-59
2023/07/02 10:20:00;;;;;;;6.03;3.92;;;;;;;28.22;nan;62764.16;5029938;28;20240;-57
2023/07/02 10:22:26;;;;;;;5.95;3.33;;;;;;;27.82;nan;62555.97;5021206;28;21263;-59
2023/07/02 10:25:03;;;;;;;5.57;3.30;;;;;;;27.63;nan;62658.84;5034093;28;20203;-56
2023/07/02 10:27:39;;;;;;;6.78;4.03;;;;;;;27.43;nan;62388.53;5035133;28;20688;-58
2023/07/02 10:30:07;;;;;;;5.45;3.45;;;;;;;27.50;nan;62430.69;5034416;28;20178;-59
2023/07/02 10:32:37;;;;;;;5.60;3.30;;;;;;;27.29;nan;62532.66;5033275;28;20647;-58
2023/07/02 10:35:16;;;;;;;6.00;3.28;;;;;;;27.10;nan;62512.09;5035067;28;20186;-58
2023/07/02 10:37:42;;;;;;;6.90;3.55;;;;;;;26.90;nan;62334.47;5035229;28;20178;-58
2023/07/02 10:40:09;;;;;;;5.68;3.15;;;;;;;26.66;nan;62212.69;5035211;28;20179;-56
2023/07/02 10:42:55;;;;;;;6.47;3.58;;;;;;;26.48;nan;62250.44;5035173;28;20641;-57
2023/07/02 10:45:34;;;;;;;4.78;3.03;;;;;;;26.20;nan;62245.28;5034495;28;20265;-57
2023/07/02 10:48:01;;;;;;;5.72;3.50;;;;;;;25.93;nan;62282.63;5035195;28;20167;-59
2023/07/02 10:50:27;;;;;;;6.85;3.60;;;;;;;25.73;nan;62069.25;5035108;28;20179;-57
2023/07/02 10:52:53;;;;;;;8.70;4.22;;;;;;;25.83;nan;62074.84;5034771;28;20183;-58
2023/07/02 10:55:26;;;;;;;5.65;3.95;;;;;;;25.75;nan;61906.06;5034893;28;20175;-57
2023/07/02 10:58:03;;;;;;;7.18;4.03;;;;;;;25.53;nan;61945.00;5033247;28;20190;-59
2023/07/02 11:00:29;;;;;;;7.13;4.60;;;;;;;25.15;nan;61935.34;5034844;28;20542;-57
2023/07/02 11:02:54;;;;;;;8.65;4.20;;;;;;;25.27;nan;61901.84;5034392;28;20642;-59
2023/07/02 11:05:20;;;;;;;8.02;4.45;;;;;;;25.06;nan;61828.94;5034473;28;20179;-59
2023/07/02 11:07:45;;;;;;;7.00;4.18;;;;;;;25.25;nan;61711.28;5034436;28;20663;-58
2023/07/02 11:10:18;;;;;;;8.75;4.60;;;;;;;25.15;nan;61763.28;5033251;28;20187;-69
2023/07/02 11:12:44;;;;;;;9.25;4.10;;;;;;;25.65;nan;61763.84;5034070;28;20255;-58
2023/07/02 11:15:14;;;;;;;10.00;4.88;;;;;;;25.69;nan;61964.69;5034279;28;20655;-59
2023/07/02 11:17:42;;;;;;;7.70;4.13;;;;;;;25.85;nan;62226.34;5033894;28;20201;-58
2023/07/02 11:20:13;;;;;;;9.93;4.25;;;;;;;26.13;nan;62234.09;5033936;28;20187;-58
2023/07/02 11:22:39;;;;;;;9.48;4.88;;;;;;;26.32;nan;62137.88;5034155;28;20183;-57
2023/07/02 11:25:10;;;;;;;11.38;4.97;;;;;;;26.41;nan;62266.03;5033477;28;20582;-58
2023/07/02 11:27:36;;;;;;;10.18;4.65;;;;;;;26.47;nan;62168.03;5033843;28;20175;-56
2023/07/02 11:30:01;;;;;;;7.72;4.45;;;;;;;26.56;nan;62248.50;5033942;28;20167;-59
2023/07/02 11:32:27;;;;;;;10.57;4.43;;;;;;;26.73;nan;62225.91;5034079;28;20285;-58
2023/07/02 11:34:54;;;;;;;8.48;4.80;;;;;;;26.96;nan;62262.63;5033111;28;20234;-58
2023/07/02 11:37:19;;;;;;;10.43;4.45;;;;;;;26.80;nan;62297.41;5033589;28;20176;-59
2023/07/02 11:39:45;;;;;;;12.75;5.07;;;;;;;26.79;nan;62403.22;5034002;28;20177;-58
2023/07/02 11:42:10;;;;;;;8.60;4.70;;;;;;;26.99;nan;62433.38;5033827;28;20198;-58
2023/07/02 11:44:36;;;;;;;8.60;4.40;;;;;;;27.09;nan;62358.22;5033295;28;20302;-57